KIFP

Laughlin / Bullhead International Airport

Bullhead City, Arizona, USA
METAR KIFP 212015Z 34013G21KT 10SM CLR 14/M11 A3027 RMK AO2
Observed Flight Rules
Jan-21 @ 20:15 UTC (15 minutes ago) Visual Flight Rules
Wind Visibility Clouds
340° at 13 knots
 Gusting to 21 knots
10 miles
  • Clear skies
Temperatures Readings
Current 14°C / 57°F
Dewpoint -11°C / 12°F
Humidity 17%
Altimeter 30.27" Hg
Pressure 1025 hPa
Elevation 212
METAR KIFP 212015Z 34013G21KT 10SM CLR 14/M11 A3027 RMK AO2
Observed Flight Rules
Jan-21 @ 20:15 UTC
(15 minutes ago)
VFR
Wind Visibility
340° at 13 knots
 Gusting to 21 knots
10 miles
Clouds
  • Clear skies
Temperature Dewpoint
14°C / 57°F -11°C / 12°F
Humidity Altimeter Pressure
17% 30.27" Hg 1025 hPa